SHT8G EGLL-EGPH
Flight info
| Callsign | SHT8G |
|---|---|
| Flight time | 0h 49m |
| Altitude | 32000 |
| Route | UMLAT T418 WELIN T420 TNT UN57 POL UN601 RIBEL <FRA> INPIP |
| Aircraft | A21N/M-SDE3FGHIJ1LRWXYZ/SB1G1 |
Departure
| Time | 2026-05-03 21:35 |
|---|---|
| Airport | London Heathrow Airport (EGLL) |
Arrival
| Time | 2026-05-03 22:24 |
|---|---|
| Airport | Edinburgh Airport (EGPH) |
| Time | Latitude | Longitude | Altitude | Speed | Heading |
|---|---|---|---|---|---|
| 2026-05-03 20:15 | 51.47409 | -0.48829 | 91 ft | 0 kts | 179° |
| 2026-05-03 21:22 | 51.47414 | -0.48829 | 91 ft | 4 kts | 179° |
| 2026-05-03 21:22 | 51.47441 | -0.48829 | 91 ft | 4 kts | 180° |
| 2026-05-03 21:23 | 51.47463 | -0.48830 | 91 ft | 4 kts | 167° |
| 2026-05-03 21:23 | 51.47482 | -0.48849 | 91 ft | 4 kts | 117° |
| 2026-05-03 21:23 | 51.47489 | -0.48886 | 91 ft | 4 kts | 103° |
| 2026-05-03 21:23 | 51.47492 | -0.48901 | 91 ft | 0 kts | 103° |
| 2026-05-03 21:26 | 51.47490 | -0.48889 | 91 ft | 3 kts | 103° |
| 2026-05-03 21:26 | 51.47486 | -0.48837 | 91 ft | 7 kts | 95° |
| 2026-05-03 21:26 | 51.47486 | -0.48736 | 91 ft | 11 kts | 89° |
| 2026-05-03 21:26 | 51.47488 | -0.48586 | 91 ft | 16 kts | 89° |
| 2026-05-03 21:27 | 51.47432 | -0.48467 | 91 ft | 16 kts | 179° |
| 2026-05-03 21:27 | 51.47312 | -0.48471 | 91 ft | 18 kts | 181° |
| 2026-05-03 21:27 | 51.47178 | -0.48472 | 91 ft | 20 kts | 180° |
| 2026-05-03 21:27 | 51.47031 | -0.48473 | 91 ft | 22 kts | 180° |
| 2026-05-03 21:28 | 51.46886 | -0.48468 | 92 ft | 18 kts | 179° |
| 2026-05-03 21:28 | 51.46756 | -0.48468 | 92 ft | 19 kts | 180° |
| 2026-05-03 21:28 | 51.46669 | -0.48448 | 92 ft | 12 kts | 140° |
| 2026-05-03 21:28 | 51.46652 | -0.48316 | 92 ft | 14 kts | 85° |
| 2026-05-03 21:29 | 51.46653 | -0.48142 | 92 ft | 17 kts | 90° |
| 2026-05-03 21:29 | 51.46653 | -0.47936 | 92 ft | 20 kts | 90° |
| 2026-05-03 21:29 | 51.46656 | -0.47701 | 91 ft | 22 kts | 90° |
| 2026-05-03 21:29 | 51.46656 | -0.47437 | 91 ft | 25 kts | 90° |
| 2026-05-03 21:30 | 51.46656 | -0.47152 | 92 ft | 26 kts | 90° |
| 2026-05-03 21:30 | 51.46657 | -0.46847 | 92 ft | 28 kts | 88° |
| 2026-05-03 21:30 | 51.46660 | -0.46636 | 92 ft | 29 kts | 89° |
| 2026-05-03 21:30 | 51.46660 | -0.46302 | 92 ft | 31 kts | 90° |
| 2026-05-03 21:31 | 51.46659 | -0.46024 | 91 ft | 24 kts | 90° |
| 2026-05-03 21:31 | 51.46660 | -0.45742 | 91 ft | 26 kts | 89° |
| 2026-05-03 21:31 | 51.46663 | -0.45450 | 91 ft | 24 kts | 90° |
| 2026-05-03 21:31 | 51.46663 | -0.45177 | 92 ft | 25 kts | 90° |
| 2026-05-03 21:32 | 51.46665 | -0.44885 | 92 ft | 27 kts | 89° |
| 2026-05-03 21:32 | 51.46667 | -0.44575 | 92 ft | 29 kts | 90° |
| 2026-05-03 21:32 | 51.46665 | -0.44247 | 92 ft | 30 kts | 88° |
| 2026-05-03 21:32 | 51.46667 | -0.43995 | 91 ft | 20 kts | 91° |
| 2026-05-03 21:33 | 51.46657 | -0.43845 | 91 ft | 10 kts | 129° |
| 2026-05-03 21:33 | 51.46583 | -0.43827 | 91 ft | 12 kts | 182° |
| 2026-05-03 21:33 | 51.46524 | -0.43841 | 91 ft | 8 kts | 217° |
| 2026-05-03 21:33 | 51.46496 | -0.43936 | 91 ft | 11 kts | 264° |
| 2026-05-03 21:34 | 51.46492 | -0.44186 | 91 ft | 52 kts | 270° |
| 2026-05-03 21:34 | 51.46490 | -0.45156 | 94 ft | 119 kts | 270° |
| 2026-05-03 21:34 | 51.46486 | -0.46795 | 96 ft | 172 kts | 269° |
| 2026-05-03 21:34 | 51.46495 | -0.48783 | 559 ft | 179 kts | 270° |
| 2026-05-03 21:35 | 51.46534 | -0.50799 | 1228 ft | 183 kts | 275° |
| 2026-05-03 21:35 | 51.46778 | -0.52817 | 1937 ft | 187 kts | 285° |
| 2026-05-03 21:35 | 51.47299 | -0.54793 | 2589 ft | 201 kts | 299° |
| 2026-05-03 21:35 | 51.48166 | -0.56675 | 3256 ft | 223 kts | 309° |
| 2026-05-03 21:36 | 51.49233 | -0.58706 | 3835 ft | 250 kts | 309° |
| 2026-05-03 21:36 | 51.50407 | -0.60903 | 4563 ft | 268 kts | 310° |
| 2026-05-03 21:36 | 51.51660 | -0.63180 | 5378 ft | 274 kts | 311° |
| 2026-05-03 21:36 | 51.52956 | -0.65476 | 6280 ft | 279 kts | 311° |
| 2026-05-03 21:37 | 51.54289 | -0.67777 | 7193 ft | 284 kts | 317° |
| 2026-05-03 21:37 | 51.55966 | -0.69462 | 8085 ft | 288 kts | 340° |
| 2026-05-03 21:37 | 51.57948 | -0.69941 | 8966 ft | 292 kts | 4° |
| 2026-05-03 21:37 | 51.59956 | -0.69325 | 9817 ft | 296 kts | 14° |
| 2026-05-03 21:38 | 51.61980 | -0.68434 | 10447 ft | 309 kts | 15° |
| 2026-05-03 21:38 | 51.64124 | -0.67491 | 10807 ft | 329 kts | 15° |
| 2026-05-03 21:38 | 51.66396 | -0.66531 | 11163 ft | 347 kts | 14° |
| 2026-05-03 21:38 | 51.68782 | -0.65541 | 11568 ft | 361 kts | 14° |
| 2026-05-03 21:39 | 51.71238 | -0.64541 | 12150 ft | 367 kts | 14° |
| 2026-05-03 21:39 | 51.73692 | -0.63548 | 12783 ft | 370 kts | 14° |
| 2026-05-03 21:39 | 51.76204 | -0.62545 | 13401 ft | 374 kts | 13° |
| 2026-05-03 21:39 | 51.78739 | -0.61531 | 13979 ft | 377 kts | 14° |
| 2026-05-03 21:40 | 51.81300 | -0.60499 | 14522 ft | 381 kts | 14° |
| 2026-05-03 21:40 | 51.83880 | -0.59454 | 15039 ft | 384 kts | 14° |
| 2026-05-03 21:40 | 51.86485 | -0.58395 | 15523 ft | 388 kts | 14° |
| 2026-05-03 21:40 | 51.89113 | -0.57331 | 15977 ft | 391 kts | 13° |
| 2026-05-03 21:41 | 51.91807 | -0.56641 | 16402 ft | 394 kts | 3° |
| 2026-05-03 21:41 | 51.94544 | -0.56911 | 16800 ft | 396 kts | 349° |
| 2026-05-03 21:41 | 51.97181 | -0.58223 | 17181 ft | 398 kts | 335° |
| 2026-05-03 21:41 | 51.99607 | -0.60390 | 17555 ft | 400 kts | 328° |
| 2026-05-03 21:42 | 52.01983 | -0.62784 | 17904 ft | 403 kts | 328° |
| 2026-05-03 21:42 | 52.04374 | -0.65190 | 18241 ft | 405 kts | 328° |
| 2026-05-03 21:42 | 52.06787 | -0.67593 | 18567 ft | 408 kts | 328° |
| 2026-05-03 21:42 | 52.09221 | -0.69990 | 18874 ft | 410 kts | 328° |
| 2026-05-03 21:43 | 52.11669 | -0.72402 | 19178 ft | 412 kts | 328° |
| 2026-05-03 21:43 | 52.14131 | -0.74829 | 19473 ft | 414 kts | 328° |
| 2026-05-03 21:43 | 52.16600 | -0.77264 | 19754 ft | 417 kts | 328° |
| 2026-05-03 21:43 | 52.19082 | -0.79723 | 20027 ft | 419 kts | 328° |
| 2026-05-03 21:44 | 52.21579 | -0.82189 | 20294 ft | 421 kts | 328° |
| 2026-05-03 21:44 | 52.24086 | -0.84672 | 20554 ft | 422 kts | 328° |
| 2026-05-03 21:44 | 52.26602 | -0.87172 | 20798 ft | 424 kts | 328° |
| 2026-05-03 21:44 | 52.29128 | -0.89687 | 21037 ft | 426 kts | 328° |
| 2026-05-03 21:45 | 52.31667 | -0.92210 | 21272 ft | 428 kts | 328° |
| 2026-05-03 21:45 | 52.34217 | -0.94741 | 21502 ft | 430 kts | 328° |
| 2026-05-03 21:45 | 52.36779 | -0.97279 | 21719 ft | 431 kts | 328° |
| 2026-05-03 21:45 | 52.39350 | -0.99837 | 21937 ft | 433 kts | 328° |
| 2026-05-03 21:46 | 52.41929 | -1.02411 | 22153 ft | 435 kts | 328° |
| 2026-05-03 21:46 | 52.44511 | -1.05007 | 22356 ft | 436 kts | 328° |
| 2026-05-03 21:46 | 52.47102 | -1.07619 | 22553 ft | 438 kts | 328° |
| 2026-05-03 21:46 | 52.49700 | -1.10230 | 22748 ft | 439 kts | 328° |
| 2026-05-03 21:47 | 52.52311 | -1.12856 | 22938 ft | 441 kts | 328° |
| 2026-05-03 21:47 | 52.54933 | -1.15490 | 23117 ft | 442 kts | 328° |
| 2026-05-03 21:47 | 52.57564 | -1.18132 | 23300 ft | 444 kts | 328° |
| 2026-05-03 21:47 | 52.60201 | -1.20788 | 23480 ft | 445 kts | 328° |
| 2026-05-03 21:48 | 52.62844 | -1.23460 | 23659 ft | 446 kts | 328° |
| 2026-05-03 21:48 | 52.65494 | -1.26140 | 23826 ft | 448 kts | 328° |
| 2026-05-03 21:48 | 52.68151 | -1.28839 | 23990 ft | 449 kts | 328° |
| 2026-05-03 21:48 | 52.70816 | -1.31545 | 24160 ft | 451 kts | 328° |
| 2026-05-03 21:49 | 52.73490 | -1.34259 | 24322 ft | 452 kts | 328° |
| 2026-05-03 21:49 | 52.76172 | -1.36981 | 24486 ft | 453 kts | 328° |
| 2026-05-03 21:49 | 52.78853 | -1.39717 | 24645 ft | 455 kts | 328° |
| 2026-05-03 21:49 | 52.81546 | -1.42469 | 24807 ft | 456 kts | 328° |
| 2026-05-03 21:50 | 52.84246 | -1.45235 | 24972 ft | 457 kts | 328° |
| 2026-05-03 21:50 | 52.86950 | -1.48020 | 25139 ft | 458 kts | 328° |
| 2026-05-03 21:50 | 52.89666 | -1.50804 | 25308 ft | 460 kts | 328° |
| 2026-05-03 21:50 | 52.92350 | -1.53565 | 25469 ft | 461 kts | 328° |
| 2026-05-03 21:51 | 52.95076 | -1.56371 | 25598 ft | 462 kts | 328° |
| 2026-05-03 21:51 | 52.97804 | -1.59182 | 25725 ft | 463 kts | 328° |
| 2026-05-03 21:51 | 53.00543 | -1.62016 | 25857 ft | 464 kts | 328° |
| 2026-05-03 21:51 | 53.03291 | -1.64853 | 25998 ft | 465 kts | 328° |
| 2026-05-03 21:52 | 53.06138 | -1.67424 | 26136 ft | 467 kts | 336° |
| 2026-05-03 21:52 | 53.09170 | -1.69387 | 26287 ft | 468 kts | 339° |
| 2026-05-03 21:52 | 53.12232 | -1.71269 | 26443 ft | 470 kts | 339° |
| 2026-05-03 21:52 | 53.15303 | -1.73155 | 26608 ft | 471 kts | 339° |
| 2026-05-03 21:53 | 53.18379 | -1.75063 | 26781 ft | 472 kts | 339° |
| 2026-05-03 21:53 | 53.21464 | -1.76982 | 26971 ft | 474 kts | 339° |
| 2026-05-03 21:53 | 53.24552 | -1.78908 | 27176 ft | 475 kts | 339° |
| 2026-05-03 21:53 | 53.27658 | -1.80841 | 27390 ft | 477 kts | 339° |
| 2026-05-03 21:54 | 53.30778 | -1.82788 | 27629 ft | 479 kts | 339° |
| 2026-05-03 21:54 | 53.33909 | -1.84746 | 27899 ft | 482 kts | 339° |
| 2026-05-03 21:54 | 53.37056 | -1.86716 | 28204 ft | 484 kts | 339° |
| 2026-05-03 21:54 | 53.40223 | -1.88703 | 28565 ft | 487 kts | 339° |
| 2026-05-03 21:55 | 53.43395 | -1.90699 | 29127 ft | 487 kts | 339° |
| 2026-05-03 21:55 | 53.46563 | -1.92697 | 29801 ft | 486 kts | 339° |
| 2026-05-03 21:55 | 53.49725 | -1.94689 | 30439 ft | 485 kts | 339° |
| 2026-05-03 21:55 | 53.52877 | -1.96688 | 31012 ft | 485 kts | 339° |
| 2026-05-03 21:56 | 53.56033 | -1.98708 | 31564 ft | 485 kts | 339° |
| 2026-05-03 21:56 | 53.59200 | -2.00721 | 31929 ft | 489 kts | 339° |
| 2026-05-03 21:56 | 53.65593 | -2.04791 | 32021 ft | 491 kts | 339° |
| 2026-05-03 21:57 | 53.71971 | -2.08870 | 32006 ft | 490 kts | 339° |
| 2026-05-03 21:57 | 53.78323 | -2.13085 | 32001 ft | 490 kts | 338° |
| 2026-05-03 21:58 | 53.84655 | -2.17397 | 32001 ft | 491 kts | 338° |
| 2026-05-03 21:58 | 53.90973 | -2.21752 | 32001 ft | 490 kts | 338° |
| 2026-05-03 21:59 | 53.97299 | -2.26102 | 32003 ft | 491 kts | 338° |
| 2026-05-03 21:59 | 54.03626 | -2.30462 | 32000 ft | 491 kts | 338° |
| 2026-05-03 22:00 | 54.09961 | -2.34813 | 32002 ft | 491 kts | 337° |
| 2026-05-03 22:00 | 54.16280 | -2.39217 | 32000 ft | 491 kts | 338° |
| 2026-05-03 22:01 | 54.22606 | -2.43574 | 32002 ft | 491 kts | 338° |
| 2026-05-03 22:01 | 54.28932 | -2.47942 | 32002 ft | 490 kts | 338° |
| 2026-05-03 22:02 | 54.35247 | -2.52388 | 32001 ft | 491 kts | 337° |
| 2026-05-03 22:02 | 54.41552 | -2.56878 | 32001 ft | 491 kts | 337° |
| 2026-05-03 22:03 | 54.47866 | -2.61342 | 32002 ft | 491 kts | 337° |
| 2026-05-03 22:03 | 54.54187 | -2.65798 | 32003 ft | 491 kts | 338° |
| 2026-05-03 22:04 | 54.60497 | -2.70259 | 32003 ft | 491 kts | 337° |
| 2026-05-03 22:04 | 54.66752 | -2.74709 | 31153 ft | 482 kts | 337° |
| 2026-05-03 22:05 | 54.69857 | -2.76938 | 29996 ft | 485 kts | 337° |
| 2026-05-03 22:05 | 54.72975 | -2.79173 | 29075 ft | 483 kts | 337° |
| 2026-05-03 22:05 | 54.76061 | -2.81347 | 28396 ft | 474 kts | 338° |
| 2026-05-03 22:05 | 54.79089 | -2.83486 | 27777 ft | 465 kts | 337° |
| 2026-05-03 22:06 | 54.82051 | -2.85603 | 27179 ft | 456 kts | 337° |
| 2026-05-03 22:06 | 54.84956 | -2.87693 | 26559 ft | 449 kts | 337° |
| 2026-05-03 22:06 | 54.87823 | -2.89754 | 25955 ft | 444 kts | 337° |
| 2026-05-03 22:06 | 54.90606 | -2.91795 | 25355 ft | 436 kts | 336° |
| 2026-05-03 22:07 | 54.93392 | -2.93841 | 24742 ft | 433 kts | 337° |
| 2026-05-03 22:07 | 54.96161 | -2.95841 | 24125 ft | 429 kts | 337° |
| 2026-05-03 22:07 | 54.98908 | -2.97832 | 23518 ft | 426 kts | 337° |
| 2026-05-03 22:07 | 55.01629 | -2.99811 | 22927 ft | 422 kts | 337° |
| 2026-05-03 22:08 | 55.04322 | -3.01777 | 22346 ft | 418 kts | 337° |
| 2026-05-03 22:08 | 55.06986 | -3.03721 | 21740 ft | 412 kts | 337° |
| 2026-05-03 22:08 | 55.09615 | -3.05630 | 21144 ft | 406 kts | 337° |
| 2026-05-03 22:08 | 55.12206 | -3.07499 | 20577 ft | 400 kts | 337° |
| 2026-05-03 22:09 | 55.14762 | -3.09355 | 20026 ft | 396 kts | 337° |
| 2026-05-03 22:09 | 55.17291 | -3.11188 | 19450 ft | 393 kts | 337° |
| 2026-05-03 22:09 | 55.19811 | -3.13029 | 18853 ft | 392 kts | 337° |
| 2026-05-03 22:10 | 55.24782 | -3.16673 | 17649 ft | 383 kts | 337° |
| 2026-05-03 22:10 | 55.27222 | -3.18479 | 17059 ft | 378 kts | 337° |
| 2026-05-03 22:10 | 55.29674 | -3.20082 | 16469 ft | 375 kts | 346° |
| 2026-05-03 22:10 | 55.32230 | -3.20396 | 16124 ft | 364 kts | 4° |
| 2026-05-03 22:11 | 55.34703 | -3.19928 | 15921 ft | 351 kts | 6° |
| 2026-05-03 22:11 | 55.37081 | -3.19443 | 15748 ft | 337 kts | 6° |
| 2026-05-03 22:11 | 55.39399 | -3.19017 | 15319 ft | 334 kts | 5° |
| 2026-05-03 22:11 | 55.41704 | -3.18625 | 14812 ft | 333 kts | 5° |
| 2026-05-03 22:12 | 55.43986 | -3.18249 | 14510 ft | 325 kts | 5° |
| 2026-05-03 22:12 | 55.46197 | -3.17895 | 14336 ft | 313 kts | 5° |
| 2026-05-03 22:12 | 55.48327 | -3.17560 | 14179 ft | 302 kts | 5° |
| 2026-05-03 22:12 | 55.50410 | -3.17233 | 13781 ft | 300 kts | 5° |
| 2026-05-03 22:13 | 55.52487 | -3.16905 | 13346 ft | 299 kts | 5° |
| 2026-05-03 22:13 | 55.54555 | -3.16578 | 12963 ft | 297 kts | 5° |
| 2026-05-03 22:13 | 55.56601 | -3.16253 | 12571 ft | 295 kts | 5° |
| 2026-05-03 22:13 | 55.58640 | -3.15932 | 12163 ft | 294 kts | 5° |
| 2026-05-03 22:14 | 55.60665 | -3.15613 | 11797 ft | 291 kts | 5° |
| 2026-05-03 22:14 | 55.62678 | -3.15296 | 11412 ft | 289 kts | 5° |
| 2026-05-03 22:14 | 55.64674 | -3.14983 | 11034 ft | 287 kts | 5° |
| 2026-05-03 22:14 | 55.66660 | -3.14668 | 10646 ft | 286 kts | 5° |
| 2026-05-03 22:15 | 55.67969 | -3.14458 | 10426 ft | 284 kts | 5° |
| 2026-05-03 22:15 | 55.70580 | -3.14042 | 10025 ft | 278 kts | 5° |
| 2026-05-03 22:15 | 55.71853 | -3.13816 | 9985 ft | 277 kts | 6° |
| 2026-05-03 22:15 | 55.73757 | -3.13369 | 9956 ft | 274 kts | 7° |
| 2026-05-03 22:16 | 55.75647 | -3.12889 | 9322 ft | 280 kts | 8° |
| 2026-05-03 22:16 | 55.77598 | -3.12334 | 8468 ft | 288 kts | 9° |
| 2026-05-03 22:16 | 55.79589 | -3.11699 | 7587 ft | 294 kts | 11° |
| 2026-05-03 22:16 | 55.81615 | -3.10985 | 6720 ft | 300 kts | 12° |
| 2026-05-03 22:17 | 55.83673 | -3.10192 | 5934 ft | 305 kts | 13° |
| 2026-05-03 22:17 | 55.85749 | -3.09320 | 5159 ft | 308 kts | 14° |
| 2026-05-03 22:17 | 55.87829 | -3.08384 | 4491 ft | 307 kts | 13° |
| 2026-05-03 22:17 | 55.89891 | -3.07738 | 4045 ft | 296 kts | 4° |
| 2026-05-03 22:18 | 55.91908 | -3.07633 | 3734 ft | 283 kts | 360° |
| 2026-05-03 22:18 | 55.93826 | -3.07308 | 3441 ft | 272 kts | 14° |
| 2026-05-03 22:18 | 55.95591 | -3.06325 | 3192 ft | 259 kts | 19° |
| 2026-05-03 22:18 | 55.97287 | -3.05509 | 2917 ft | 248 kts | 5° |
| 2026-05-03 22:19 | 55.98990 | -3.05453 | 2519 ft | 243 kts | 351° |
| 2026-05-03 22:19 | 56.00535 | -3.06540 | 2106 ft | 240 kts | 322° |
| 2026-05-03 22:19 | 56.01729 | -3.08610 | 1982 ft | 239 kts | 311° |
| 2026-05-03 22:19 | 56.02801 | -3.10776 | 1961 ft | 225 kts | 310° |
| 2026-05-03 22:20 | 56.03598 | -3.13018 | 1933 ft | 208 kts | 282° |
| 2026-05-03 22:20 | 56.03467 | -3.15450 | 1961 ft | 190 kts | 243° |
| 2026-05-03 22:20 | 56.02554 | -3.17067 | 1996 ft | 185 kts | 216° |
| 2026-05-03 22:20 | 56.01594 | -3.18494 | 1996 ft | 174 kts | 225° |
| 2026-05-03 22:21 | 56.00859 | -3.20100 | 1974 ft | 164 kts | 234° |
| 2026-05-03 22:21 | 56.00236 | -3.21806 | 1895 ft | 164 kts | 238° |
| 2026-05-03 22:21 | 55.99633 | -3.23561 | 1701 ft | 163 kts | 238° |
| 2026-05-03 22:21 | 55.99060 | -3.25250 | 1488 ft | 157 kts | 238° |
| 2026-05-03 22:22 | 55.98547 | -3.26768 | 1285 ft | 134 kts | 238° |
| 2026-05-03 22:22 | 55.98068 | -3.28184 | 1091 ft | 133 kts | 238° |
| 2026-05-03 22:22 | 55.97590 | -3.29591 | 964 ft | 132 kts | 239° |
| 2026-05-03 22:22 | 55.97117 | -3.31001 | 790 ft | 132 kts | 239° |
| 2026-05-03 22:23 | 55.96646 | -3.32403 | 602 ft | 132 kts | 238° |
| 2026-05-03 22:23 | 55.96168 | -3.33791 | 434 ft | 131 kts | 239° |
| 2026-05-03 22:23 | 55.95700 | -3.35187 | 222 ft | 131 kts | 239° |
| 2026-05-03 22:23 | 55.95237 | -3.36562 | 119 ft | 123 kts | 238° |
| 2026-05-03 22:24 | 55.94885 | -3.37586 | 119 ft | 67 kts | 237° |
| 2026-05-03 22:24 | 55.94763 | -3.37942 | 121 ft | 19 kts | 239° |
| 2026-05-03 22:24 | 55.94725 | -3.38049 | 120 ft | 7 kts | 228° |
| 2026-05-03 22:24 | 55.94671 | -3.38035 | 120 ft | 10 kts | 145° |
| 2026-05-03 22:25 | 55.94614 | -3.37972 | 121 ft | 11 kts | 146° |
| 2026-05-03 22:25 | 55.94602 | -3.37851 | 121 ft | 6 kts | 65° |
| 2026-05-03 22:25 | 55.94629 | -3.37763 | 121 ft | 10 kts | 58° |
| 2026-05-03 22:25 | 55.94675 | -3.37636 | 121 ft | 14 kts | 58° |
| 2026-05-03 22:26 | 55.94733 | -3.37467 | 121 ft | 18 kts | 58° |
| 2026-05-03 22:26 | 55.94803 | -3.37262 | 121 ft | 21 kts | 59° |
| 2026-05-03 22:26 | 55.94874 | -3.37054 | 121 ft | 19 kts | 58° |
| 2026-05-03 22:26 | 55.94923 | -3.36897 | 121 ft | 11 kts | 80° |
| 2026-05-03 22:27 | 55.94896 | -3.36760 | 121 ft | 12 kts | 87° |
| 2026-05-03 22:27 | 55.94935 | -3.36631 | 122 ft | 10 kts | 57° |
| 2026-05-03 22:27 | 55.94969 | -3.36537 | 122 ft | 5 kts | 57° |
| 2026-05-03 22:27 | 55.94959 | -3.36474 | 122 ft | 3 kts | 137° |
| 2026-05-03 22:28 | 55.94932 | -3.36443 | 122 ft | 6 kts | 149° |
| 2026-05-03 22:28 | 55.94921 | -3.36431 | 122 ft | 0 kts | 148° |